Forest City, Pennsylvania
Current Conditions -  °F | °C
As of 6:54 AM on Tuesday 21 Oct 2014 (Local Time) from KAVP Reporting Station
Light Rain Light Rain  
Wind Chill: 52°   Ceiling: 6000
Heat Index: 52°   Visibility: 10mi
Dew Point: 46°   Wind: 3mph
Humidity: 80%   Direction: 90°E
Pressure: 29.84"   Gusts: NA
Location:  41.65°N, 75.47°W
Report Text: KAVP 211054Z AUTO 09003KT 10SM -RA BKN060 OVC070 11/08 A2984 RMK AO2 RAB15 SLP104 P0000 T01110078
Loading
Personal Weather Stations






























Interactive Weather Map
Tropical Storm Tracking
New forecast layout! Learn more

10-Day Weather Forecast

Advertisements
Track Severe Weather on mobile